createdAt,value
2018-10-06T00:00:24.320Z,16.03
2018-10-06T00:01:28.544Z,16.03
2018-10-06T00:02:32.530Z,16.03
2018-10-06T00:03:36.557Z,16.02
2018-10-06T00:04:40.696Z,16.02
2018-10-06T00:05:44.795Z,16.02
2018-10-06T00:06:48.976Z,16.02
2018-10-06T00:07:53.241Z,16.02
2018-10-06T00:08:57.387Z,16.00
2018-10-06T00:10:01.487Z,15.99
2018-10-06T00:11:05.562Z,15.99
2018-10-06T00:12:09.685Z,15.99
2018-10-06T00:13:13.746Z,15.98
2018-10-06T00:14:17.899Z,15.97
2018-10-06T00:15:22.216Z,15.98
2018-10-06T00:16:26.324Z,15.97
2018-10-06T00:17:30.364Z,15.96
2018-10-06T00:18:34.563Z,15.95
2018-10-06T00:19:38.623Z,15.95
2018-10-06T00:20:42.672Z,15.94
2018-10-06T00:21:46.758Z,15.93
2018-10-06T00:22:50.952Z,15.93
2018-10-06T00:23:55.029Z,15.91
2018-10-06T00:24:59.216Z,15.91
2018-10-06T00:26:03.283Z,15.91
2018-10-06T00:27:07.468Z,15.90
2018-10-06T00:28:11.568Z,15.89
2018-10-06T00:29:15.701Z,15.89
2018-10-06T00:30:19.697Z,15.88
2018-10-06T00:31:23.744Z,15.87
2018-10-06T00:32:28.128Z,15.86
2018-10-06T00:33:32.242Z,15.85
2018-10-06T00:34:36.369Z,15.85
2018-10-06T00:35:40.688Z,15.85
2018-10-06T00:36:44.773Z,15.84
2018-10-06T00:37:48.820Z,15.84
2018-10-06T00:38:52.898Z,15.83
2018-10-06T00:39:57.352Z,15.82
2018-10-06T00:41:01.433Z,15.81
2018-10-06T00:42:05.498Z,15.80
2018-10-06T00:43:09.560Z,15.79
2018-10-06T00:44:13.638Z,15.79
2018-10-06T00:45:17.697Z,15.78
2018-10-06T00:46:21.724Z,15.78
2018-10-06T00:47:25.973Z,15.76
2018-10-06T00:48:30.052Z,15.76
2018-10-06T00:49:34.152Z,15.75
2018-10-06T00:50:38.217Z,15.73
2018-10-06T00:51:42.486Z,15.72
2018-10-06T00:52:47.024Z,15.71
2018-10-06T00:53:51.156Z,15.71
2018-10-06T00:54:55.262Z,15.69
2018-10-06T00:55:59.371Z,15.69
2018-10-06T00:57:03.538Z,15.67
2018-10-06T00:58:07.612Z,15.67
2018-10-06T00:59:11.821Z,15.68
2018-10-06T01:00:15.922Z,15.66
2018-10-06T01:01:20.068Z,15.65
2018-10-06T01:02:24.131Z,15.64
2018-10-06T01:03:28.146Z,15.64
2018-10-06T01:04:32.310Z,15.62
2018-10-06T01:05:36.357Z,15.62
2018-10-06T01:06:40.439Z,15.61
2018-10-06T01:07:44.495Z,15.61
2018-10-06T01:08:48.696Z,15.60
2018-10-06T01:09:52.902Z,15.59
2018-10-06T01:10:57.029Z,15.57
2018-10-06T01:12:01.232Z,15.57
2018-10-06T01:13:05.331Z,15.56
2018-10-06T01:14:09.637Z,15.55
2018-10-06T01:15:13.755Z,15.54
2018-10-06T01:16:17.900Z,15.54
2018-10-06T01:17:21.951Z,15.54
2018-10-06T01:18:26.038Z,15.51
2018-10-06T01:19:30.143Z,15.51
2018-10-06T01:20:34.347Z,15.51
2018-10-06T01:21:38.437Z,15.51
2018-10-06T01:22:43.282Z,15.50
2018-10-06T01:23:47.417Z,15.48
2018-10-06T01:24:51.475Z,15.48
2018-10-06T01:25:55.650Z,15.47
2018-10-06T01:26:59.741Z,15.47
2018-10-06T01:28:04.578Z,15.47
2018-10-06T01:29:08.637Z,15.46
2018-10-06T01:30:12.720Z,15.46
2018-10-06T01:31:16.922Z,15.45
2018-10-06T01:32:21.027Z,15.45
2018-10-06T01:33:25.677Z,15.44
2018-10-06T01:34:29.856Z,15.43
2018-10-06T01:35:34.001Z,15.43
2018-10-06T01:36:38.117Z,15.42
2018-10-06T01:37:42.237Z,15.42
2018-10-06T01:38:46.414Z,15.41
2018-10-06T01:39:50.532Z,15.42
2018-10-06T01:40:54.813Z,15.41
2018-10-06T01:42:00.511Z,15.41
2018-10-06T01:43:04.937Z,15.41
2018-10-06T01:44:09.034Z,15.40
2018-10-06T01:45:13.447Z,15.40
2018-10-06T01:46:17.533Z,15.39
2018-10-06T01:47:21.624Z,15.38
2018-10-06T01:48:25.793Z,15.37
2018-10-06T01:49:30.009Z,15.38
2018-10-06T01:50:34.153Z,15.37
2018-10-06T01:51:38.337Z,15.36
2018-10-06T01:52:42.473Z,15.36
2018-10-06T01:53:46.606Z,15.34
2018-10-06T01:54:50.804Z,15.34
2018-10-06T01:55:54.869Z,15.33
2018-10-06T01:56:59.030Z,15.33
2018-10-06T01:58:03.128Z,15.32
2018-10-06T01:59:07.471Z,15.32
2018-10-06T02:00:11.665Z,15.31
2018-10-06T02:01:15.798Z,15.31
2018-10-06T02:02:19.916Z,15.30
2018-10-06T02:03:24.074Z,15.30
2018-10-06T02:04:29.130Z,15.29
2018-10-06T02:05:33.192Z,15.30
2018-10-06T02:06:37.522Z,15.29
2018-10-06T02:07:41.572Z,15.29
2018-10-06T02:08:45.668Z,15.29
2018-10-06T02:09:49.792Z,15.28
2018-10-06T02:10:53.873Z,15.29
2018-10-06T02:11:58.043Z,15.27
2018-10-06T02:13:02.194Z,15.28
2018-10-06T02:14:06.372Z,15.29
2018-10-06T02:15:10.522Z,15.26
2018-10-06T02:16:14.618Z,15.27
2018-10-06T02:17:18.747Z,15.26
2018-10-06T02:18:22.892Z,15.26
2018-10-06T02:19:27.016Z,15.26
2018-10-06T02:20:31.155Z,15.25
2018-10-06T02:21:35.213Z,15.25
2018-10-06T02:22:39.370Z,15.25
2018-10-06T02:23:43.627Z,15.24
2018-10-06T02:24:54.213Z,15.24
2018-10-06T02:25:58.365Z,15.23
2018-10-06T02:27:02.454Z,15.22
2018-10-06T02:28:06.885Z,15.22
2018-10-06T02:29:11.091Z,15.20
2018-10-06T02:30:15.430Z,15.20
2018-10-06T02:31:19.552Z,15.20
2018-10-06T02:32:23.677Z,15.19
2018-10-06T02:33:27.841Z,15.19
2018-10-06T02:34:32.037Z,15.19
2018-10-06T02:35:36.180Z,15.18
2018-10-06T02:36:40.308Z,15.17
2018-10-06T02:37:44.380Z,15.16
2018-10-06T02:38:48.549Z,15.16
2018-10-06T02:39:52.991Z,15.15
2018-10-06T02:40:57.500Z,15.15
2018-10-06T02:42:01.924Z,15.15
2018-10-06T02:43:06.071Z,15.14
2018-10-06T02:44:10.117Z,15.13
2018-10-06T02:45:14.285Z,15.12
2018-10-06T02:46:18.502Z,15.12
2018-10-06T02:47:22.786Z,15.13
2018-10-06T02:48:26.826Z,15.12
2018-10-06T02:49:30.957Z,15.11
2018-10-06T02:50:34.990Z,15.12
2018-10-06T02:51:39.238Z,15.11
2018-10-06T02:52:43.316Z,15.11
2018-10-06T02:53:48.013Z,15.10
2018-10-06T02:54:52.071Z,15.10
2018-10-06T02:55:56.197Z,15.09
2018-10-06T02:57:00.301Z,15.09
2018-10-06T02:58:04.445Z,15.09
2018-10-06T02:59:08.609Z,15.09
2018-10-06T03:00:12.823Z,15.09
2018-10-06T03:01:16.932Z,15.07
2018-10-06T03:02:21.173Z,15.07
2018-10-06T03:03:25.317Z,15.07
2018-10-06T03:04:29.504Z,15.05
2018-10-06T03:05:33.707Z,15.05
2018-10-06T03:06:37.746Z,15.05
2018-10-06T03:07:42.167Z,15.05
2018-10-06T03:08:46.285Z,15.05
2018-10-06T03:09:50.420Z,15.04
2018-10-06T03:10:54.536Z,15.04
2018-10-06T03:11:58.962Z,15.03
2018-10-06T03:13:03.054Z,15.02
2018-10-06T03:14:07.340Z,15.02
2018-10-06T03:15:11.798Z,15.02
2018-10-06T03:16:15.966Z,15.02
2018-10-06T03:17:20.085Z,15.02
2018-10-06T03:18:25.133Z,15.04
2018-10-06T03:19:29.409Z,15.02
2018-10-06T03:20:33.610Z,15.01
2018-10-06T03:21:37.727Z,15.03
2018-10-06T03:22:42.690Z,15.02
2018-10-06T03:23:47.202Z,15.01
2018-10-06T03:24:51.289Z,15.00
2018-10-06T03:25:55.376Z,15.00
2018-10-06T03:26:59.480Z,14.99
2018-10-06T03:28:03.614Z,14.99
2018-10-06T03:29:07.801Z,14.98
2018-10-06T03:30:11.945Z,14.97
2018-10-06T03:31:16.241Z,14.98
2018-10-06T03:32:20.509Z,14.98
2018-10-06T03:33:24.601Z,14.97
2018-10-06T03:34:28.810Z,14.96
2018-10-06T03:35:32.997Z,14.97
2018-10-06T03:36:37.090Z,14.96
2018-10-06T03:37:41.209Z,14.95
2018-10-06T03:38:45.289Z,14.95
2018-10-06T03:39:49.444Z,14.95
2018-10-06T03:40:53.633Z,14.93
2018-10-06T03:41:58.006Z,14.94
2018-10-06T03:43:02.201Z,14.94
2018-10-06T03:44:06.313Z,14.93
2018-10-06T03:45:10.453Z,14.92
2018-10-06T03:46:14.671Z,14.91
2018-10-06T03:47:18.862Z,14.89
2018-10-06T03:48:22.939Z,14.91
2018-10-06T03:49:27.087Z,14.90
2018-10-06T03:50:31.227Z,14.91
2018-10-06T03:51:35.478Z,14.90
2018-10-06T03:52:39.712Z,14.91
2018-10-06T03:53:43.946Z,14.91
2018-10-06T03:54:48.143Z,14.90
2018-10-06T03:55:52.344Z,14.91
2018-10-06T03:56:56.672Z,14.90
2018-10-06T03:58:00.860Z,14.90
2018-10-06T03:59:04.964Z,14.91
2018-10-06T04:00:09.461Z,14.90
2018-10-06T04:01:13.634Z,14.91
2018-10-06T04:02:17.745Z,14.90
2018-10-06T04:03:22.061Z,14.89
2018-10-06T04:04:26.199Z,14.88
2018-10-06T04:05:30.455Z,14.89
2018-10-06T04:06:34.594Z,14.89
2018-10-06T04:07:38.712Z,14.87
2018-10-06T04:08:42.795Z,14.86
2018-10-06T04:09:47.033Z,14.87
2018-10-06T04:10:51.173Z,14.87
2018-10-06T04:11:55.322Z,14.86
2018-10-06T04:12:59.501Z,14.85
2018-10-06T04:14:03.695Z,14.86
2018-10-06T04:15:07.907Z,14.85
2018-10-06T04:16:12.119Z,14.85
2018-10-06T04:17:16.396Z,14.84
2018-10-06T04:18:20.477Z,14.84
2018-10-06T04:19:24.591Z,14.85
2018-10-06T04:20:29.490Z,14.83
2018-10-06T04:21:46.015Z,14.84
2018-10-06T04:22:50.130Z,14.84
2018-10-06T04:23:54.261Z,14.82
2018-10-06T04:24:58.474Z,14.82
2018-10-06T04:26:02.915Z,14.81
2018-10-06T04:27:07.026Z,14.81
2018-10-06T04:28:11.203Z,14.81
2018-10-06T04:29:15.856Z,14.80
2018-10-06T04:30:20.213Z,14.80
2018-10-06T04:31:24.268Z,14.79
2018-10-06T04:32:28.410Z,14.79
2018-10-06T04:33:32.560Z,14.80
2018-10-06T04:34:36.759Z,14.80
2018-10-06T04:35:40.864Z,14.80
2018-10-06T04:36:45.058Z,14.79
2018-10-06T04:37:49.124Z,14.79
2018-10-06T04:38:53.296Z,14.79
2018-10-06T04:39:57.333Z,14.79
2018-10-06T04:41:01.443Z,14.79
2018-10-06T04:42:05.628Z,14.78
2018-10-06T04:43:09.721Z,14.78
2018-10-06T04:44:13.831Z,14.79
2018-10-06T04:45:17.935Z,14.79
2018-10-06T04:46:22.055Z,14.78
2018-10-06T04:47:26.209Z,14.78
2018-10-06T04:48:30.434Z,14.76
2018-10-06T04:49:34.690Z,14.77
2018-10-06T04:50:38.693Z,14.77
2018-10-06T04:51:42.774Z,14.76
2018-10-06T04:52:46.908Z,14.75
2018-10-06T04:53:50.984Z,14.76
2018-10-06T04:54:55.137Z,14.76
2018-10-06T04:55:59.348Z,14.75
2018-10-06T04:57:03.433Z,14.75
2018-10-06T04:58:07.582Z,14.74
2018-10-06T04:59:11.685Z,14.73
2018-10-06T05:00:15.829Z,14.74
2018-10-06T05:01:19.920Z,14.72
2018-10-06T05:02:24.006Z,14.74
2018-10-06T05:03:28.343Z,14.73
2018-10-06T05:04:32.492Z,14.71
2018-10-06T05:05:36.731Z,14.72
2018-10-06T05:06:41.032Z,14.71
2018-10-06T05:07:45.160Z,14.71
2018-10-06T05:08:49.280Z,14.71
2018-10-06T05:09:53.808Z,14.72
2018-10-06T05:10:58.051Z,14.73
2018-10-06T05:12:02.182Z,14.71
2018-10-06T05:13:07.039Z,14.71
2018-10-06T05:14:11.099Z,14.72
2018-10-06T05:15:15.140Z,14.71
2018-10-06T05:16:19.324Z,14.71
2018-10-06T05:17:23.373Z,14.71
2018-10-06T05:18:27.541Z,14.71
2018-10-06T05:19:31.698Z,14.71
2018-10-06T05:20:35.832Z,14.71
2018-10-06T05:21:39.928Z,14.70
2018-10-06T05:22:44.017Z,14.70
2018-10-06T05:23:48.021Z,14.69
2018-10-06T05:24:52.141Z,14.69
2018-10-06T05:25:56.188Z,14.68
2018-10-06T05:27:00.307Z,14.68
2018-10-06T05:28:04.385Z,14.68
2018-10-06T05:29:08.399Z,14.67
2018-10-06T05:30:12.502Z,14.67
2018-10-06T05:31:16.653Z,14.68
2018-10-06T05:32:20.880Z,14.67
2018-10-06T05:33:24.970Z,14.66
2018-10-06T05:34:29.077Z,14.66
2018-10-06T05:35:33.186Z,14.67
2018-10-06T05:36:37.394Z,14.66
2018-10-06T05:37:41.538Z,14.66
2018-10-06T05:38:45.688Z,14.65
2018-10-06T05:39:49.877Z,14.65
2018-10-06T05:40:54.349Z,14.63
2018-10-06T05:41:58.449Z,14.64
2018-10-06T05:43:02.908Z,14.65
2018-10-06T05:44:07.097Z,14.64
2018-10-06T05:45:11.277Z,14.63
2018-10-06T05:46:15.459Z,14.63
2018-10-06T05:47:19.569Z,14.62
2018-10-06T05:48:23.790Z,14.62
2018-10-06T05:49:28.040Z,14.62
2018-10-06T05:50:32.263Z,14.62
2018-10-06T05:51:36.408Z,14.61
2018-10-06T05:52:40.493Z,14.63
2018-10-06T05:53:45.132Z,14.62
2018-10-06T05:54:49.272Z,14.61
2018-10-06T05:55:53.637Z,14.61
2018-10-06T05:56:57.796Z,14.62
2018-10-06T05:58:02.093Z,14.61
2018-10-06T05:59:06.481Z,14.61
2018-10-06T06:00:10.561Z,14.60
2018-10-06T06:01:14.651Z,14.60
2018-10-06T06:02:18.737Z,14.60
2018-10-06T06:03:22.922Z,14.59
2018-10-06T06:04:27.090Z,14.61
2018-10-06T06:05:31.237Z,14.61
2018-10-06T06:06:35.466Z,14.61
2018-10-06T06:07:39.556Z,14.61
2018-10-06T06:08:43.852Z,14.61
2018-10-06T06:09:48.003Z,14.61
2018-10-06T06:10:52.108Z,14.63
2018-10-06T06:11:56.248Z,14.63
2018-10-06T06:13:00.376Z,14.65
2018-10-06T06:14:04.467Z,14.64
2018-10-06T06:15:09.010Z,14.65
2018-10-06T06:16:13.182Z,14.66
2018-10-06T06:17:17.269Z,14.67
2018-10-06T06:18:21.388Z,14.68
2018-10-06T06:19:33.270Z,14.68
2018-10-06T06:20:39.069Z,14.69
2018-10-06T06:21:44.373Z,14.70
2018-10-06T06:22:48.592Z,14.70
2018-10-06T06:23:52.904Z,14.70
2018-10-06T06:24:57.211Z,14.71
2018-10-06T06:26:01.481Z,14.71
2018-10-06T06:27:05.584Z,14.73
2018-10-06T06:28:09.944Z,14.73
2018-10-06T06:29:14.165Z,14.73
2018-10-06T06:30:18.253Z,14.74
2018-10-06T06:31:22.533Z,14.74
2018-10-06T06:32:26.948Z,14.74
2018-10-06T06:33:31.088Z,14.75
2018-10-06T06:34:35.222Z,14.75
2018-10-06T06:35:39.440Z,14.76
2018-10-06T06:36:43.706Z,14.75
2018-10-06T06:37:47.828Z,14.76
2018-10-06T06:38:52.238Z,14.78
2018-10-06T06:39:56.393Z,14.79
2018-10-06T06:41:01.086Z,14.79
2018-10-06T06:42:05.269Z,14.80
2018-10-06T06:43:09.765Z,14.81
2018-10-06T06:44:14.056Z,14.83
2018-10-06T06:45:18.170Z,14.83
2018-10-06T06:46:22.293Z,14.84
2018-10-06T06:47:26.631Z,14.86
2018-10-06T06:48:30.828Z,14.86
2018-10-06T06:49:35.176Z,14.88
2018-10-06T06:50:39.567Z,14.89
2018-10-06T06:51:43.742Z,14.91
2018-10-06T06:52:47.897Z,14.92
2018-10-06T06:53:51.974Z,14.93
2018-10-06T06:54:56.136Z,14.95
2018-10-06T06:56:00.365Z,14.96
2018-10-06T06:57:04.493Z,14.97
2018-10-06T06:58:08.627Z,14.98
2018-10-06T06:59:12.762Z,14.99
2018-10-06T07:00:16.981Z,15.01
2018-10-06T07:01:21.137Z,15.02
2018-10-06T07:02:25.372Z,15.04
2018-10-06T07:03:29.728Z,15.06
2018-10-06T07:04:34.143Z,15.06
2018-10-06T07:05:38.364Z,15.08
2018-10-06T07:06:42.525Z,15.10
2018-10-06T07:07:47.553Z,15.11
2018-10-06T07:08:51.740Z,15.13
2018-10-06T07:09:56.052Z,15.15
2018-10-06T07:11:00.192Z,15.17
2018-10-06T07:12:04.369Z,15.18
2018-10-06T07:13:09.033Z,15.20
2018-10-06T07:14:13.228Z,15.21
2018-10-06T07:15:17.298Z,15.24
2018-10-06T07:16:21.753Z,15.24
2018-10-06T07:17:25.845Z,15.26
2018-10-06T07:18:29.948Z,15.28
2018-10-06T07:19:34.545Z,15.28
2018-10-06T07:20:38.625Z,15.31
2018-10-06T07:21:42.975Z,15.32
2018-10-06T07:22:47.069Z,15.34
2018-10-06T07:23:51.159Z,15.35
2018-10-06T07:24:55.348Z,15.36
2018-10-06T07:25:59.492Z,15.40
2018-10-06T07:27:03.747Z,15.41
2018-10-06T07:28:08.012Z,15.42
2018-10-06T07:29:12.179Z,15.44
2018-10-06T07:30:16.319Z,15.46
2018-10-06T07:31:21.066Z,15.47
2018-10-06T07:32:25.166Z,15.48
2018-10-06T07:33:29.294Z,15.49
2018-10-06T07:34:33.557Z,15.50
2018-10-06T07:35:37.603Z,15.53
2018-10-06T07:36:41.895Z,15.54
2018-10-06T07:37:46.010Z,15.56
2018-10-06T07:38:50.091Z,15.56
2018-10-06T07:39:54.142Z,15.58
2018-10-06T07:40:58.219Z,15.59
2018-10-06T07:42:02.327Z,15.61
2018-10-06T07:43:06.552Z,15.62
2018-10-06T07:44:11.096Z,15.65
2018-10-06T07:45:15.668Z,15.66
2018-10-06T07:46:19.775Z,15.68
2018-10-06T07:47:23.933Z,15.70
2018-10-06T07:48:28.038Z,15.70
2018-10-06T07:49:32.171Z,15.72
2018-10-06T07:50:36.864Z,15.74
2018-10-06T07:51:41.116Z,15.76
2018-10-06T07:52:45.305Z,15.78
2018-10-06T07:53:49.478Z,15.80
2018-10-06T07:54:53.674Z,15.81
2018-10-06T07:55:57.977Z,15.83
2018-10-06T07:57:02.182Z,15.84
2018-10-06T07:58:06.655Z,15.87
2018-10-06T07:59:11.109Z,15.88
2018-10-06T08:00:15.229Z,15.88
2018-10-06T08:01:19.498Z,15.91
2018-10-06T08:02:23.692Z,15.93
2018-10-06T08:03:28.210Z,15.94
2018-10-06T08:04:32.494Z,15.96
2018-10-06T08:05:36.669Z,15.98
2018-10-06T08:06:40.852Z,16.01
2018-10-06T08:07:45.101Z,16.03
2018-10-06T08:08:49.574Z,16.04
2018-10-06T08:09:53.826Z,16.06
2018-10-06T08:10:57.977Z,16.08
2018-10-06T08:12:02.247Z,16.09
2018-10-06T08:13:07.087Z,16.11
2018-10-06T08:14:12.410Z,16.12
2018-10-06T08:15:16.654Z,16.13
2018-10-06T08:16:20.704Z,16.15
2018-10-06T08:17:24.989Z,16.19
2018-10-06T08:18:29.181Z,16.21
2018-10-06T08:19:33.324Z,16.23
2018-10-06T08:20:38.144Z,16.24
2018-10-06T08:21:42.305Z,16.25
2018-10-06T08:22:46.385Z,16.28
2018-10-06T08:23:50.536Z,16.29
2018-10-06T08:24:54.774Z,16.31
2018-10-06T08:25:59.495Z,16.32
2018-10-06T08:27:03.605Z,16.35
2018-10-06T08:28:08.004Z,16.37
2018-10-06T08:29:12.543Z,16.38
2018-10-06T08:30:16.722Z,16.41
2018-10-06T08:31:23.345Z,16.44
2018-10-06T08:32:27.907Z,16.45
2018-10-06T08:33:32.253Z,16.47
2018-10-06T08:34:36.448Z,16.50
2018-10-06T08:35:40.572Z,16.53
2018-10-06T08:36:44.658Z,16.54
2018-10-06T08:37:48.799Z,16.56
2018-10-06T08:38:52.958Z,16.59
2018-10-06T08:39:57.239Z,16.62
2018-10-06T08:41:01.321Z,16.63
2018-10-06T08:42:05.434Z,16.64
2018-10-06T08:43:09.965Z,16.65
2018-10-06T08:44:14.330Z,16.68
2018-10-06T08:45:18.600Z,16.69
2018-10-06T08:46:22.678Z,16.70
2018-10-06T08:47:27.176Z,16.72
2018-10-06T08:48:31.411Z,16.75
2018-10-06T08:49:35.586Z,16.77
2018-10-06T08:50:40.652Z,16.79
2018-10-06T08:51:44.760Z,16.81
2018-10-06T08:52:48.893Z,16.83
2018-10-06T08:53:53.131Z,16.84
2018-10-06T08:54:57.542Z,16.85
2018-10-06T08:56:01.780Z,16.88
2018-10-06T08:57:06.178Z,16.89
2018-10-06T08:58:10.295Z,16.92
2018-10-06T08:59:14.308Z,16.94
2018-10-06T09:00:18.440Z,16.96
2018-10-06T09:01:23.059Z,17.00
2018-10-06T09:02:27.264Z,17.03
2018-10-06T09:03:31.463Z,17.04
2018-10-06T09:04:35.534Z,17.08
2018-10-06T09:05:39.576Z,17.10
2018-10-06T09:06:43.789Z,17.14
2018-10-06T09:07:47.902Z,17.17
2018-10-06T09:08:52.331Z,17.18
2018-10-06T09:09:56.387Z,17.21
2018-10-06T09:11:00.500Z,17.23
2018-10-06T09:12:04.568Z,17.25
2018-10-06T09:13:08.604Z,17.27
2018-10-06T09:14:13.033Z,17.29
2018-10-06T09:15:17.099Z,17.33
2018-10-06T09:16:21.202Z,17.33
2018-10-06T09:17:25.320Z,17.34
2018-10-06T09:18:29.451Z,17.37
2018-10-06T09:19:33.625Z,17.39
2018-10-06T09:20:37.756Z,17.40
2018-10-06T09:21:41.889Z,17.43
2018-10-06T09:22:45.963Z,17.46
2018-10-06T09:23:50.058Z,17.47
2018-10-06T09:24:54.470Z,17.49
2018-10-06T09:25:59.009Z,17.51
2018-10-06T09:27:03.130Z,17.53
2018-10-06T09:28:07.704Z,17.55
2018-10-06T09:29:11.748Z,17.57
2018-10-06T09:30:15.880Z,17.59
2018-10-06T09:31:19.941Z,17.61
2018-10-06T09:32:24.045Z,17.62
2018-10-06T09:33:28.210Z,17.64
2018-10-06T09:34:32.243Z,17.64
2018-10-06T09:35:36.518Z,17.65
2018-10-06T09:36:40.734Z,17.67
2018-10-06T09:37:44.793Z,17.69
2018-10-06T09:38:48.957Z,17.72
2018-10-06T09:39:53.126Z,17.74
2018-10-06T09:40:57.512Z,17.76
2018-10-06T09:42:01.686Z,17.79
2018-10-06T09:43:05.665Z,17.82
2018-10-06T09:44:09.843Z,17.85
2018-10-06T09:45:14.031Z,17.87
2018-10-06T09:46:18.205Z,17.91
2018-10-06T09:47:22.362Z,17.93
2018-10-06T09:48:26.384Z,17.95
2018-10-06T09:49:30.542Z,17.96
2018-10-06T09:50:34.803Z,17.98
2018-10-06T09:51:38.935Z,17.99
2018-10-06T09:52:43.114Z,18.01
2018-10-06T09:53:47.294Z,18.03
2018-10-06T09:54:51.402Z,18.07
2018-10-06T09:55:55.494Z,18.08
2018-10-06T09:56:59.628Z,18.10
2018-10-06T09:58:03.772Z,18.12
2018-10-06T09:59:08.004Z,18.15
2018-10-06T10:00:12.100Z,18.19
2018-10-06T10:01:21.590Z,18.20
2018-10-06T10:02:30.888Z,18.25
2018-10-06T10:03:40.316Z,18.26
2018-10-06T10:04:44.424Z,18.30
2018-10-06T10:05:50.684Z,18.31
2018-10-06T10:06:54.952Z,18.34
2018-10-06T10:07:59.072Z,18.33
2018-10-06T10:09:03.122Z,18.34
2018-10-06T10:10:07.732Z,18.35
2018-10-06T10:11:11.863Z,18.36
2018-10-06T10:12:15.984Z,18.37
2018-10-06T10:13:20.347Z,18.39
2018-10-06T10:14:27.523Z,18.41
2018-10-06T10:15:31.706Z,18.44
2018-10-06T10:16:35.876Z,18.46
2018-10-06T10:17:40.114Z,18.48
2018-10-06T10:18:44.115Z,18.50
2018-10-06T10:19:48.136Z,18.54
2018-10-06T10:20:52.271Z,18.57
2018-10-06T10:21:56.372Z,18.59
2018-10-06T10:23:00.694Z,18.62
2018-10-06T10:24:04.710Z,18.65
2018-10-06T10:25:08.837Z,18.68
2018-10-06T10:26:12.952Z,18.70
2018-10-06T10:27:17.111Z,18.72
2018-10-06T10:28:21.696Z,18.75
2018-10-06T10:29:25.816Z,18.78
2018-10-06T10:30:29.991Z,18.81
2018-10-06T10:31:34.156Z,18.81
2018-10-06T10:32:38.502Z,18.85
2018-10-06T10:33:43.122Z,18.87
2018-10-06T10:34:47.355Z,18.89
2018-10-06T10:35:51.476Z,18.91
2018-10-06T10:36:55.572Z,18.95
2018-10-06T10:37:59.738Z,18.96
2018-10-06T10:39:05.070Z,18.99
2018-10-06T10:40:09.232Z,19.01
2018-10-06T10:41:13.390Z,19.05
2018-10-06T10:42:17.483Z,19.07
2018-10-06T10:43:21.851Z,19.08
2018-10-06T10:44:26.070Z,19.09
2018-10-06T10:45:30.410Z,19.11
2018-10-06T10:46:34.520Z,19.11
2018-10-06T10:47:38.686Z,19.13
2018-10-06T10:48:42.830Z,19.15
2018-10-06T10:49:47.063Z,19.16
2018-10-06T10:50:51.308Z,19.19
2018-10-06T10:51:55.388Z,19.22
2018-10-06T10:52:59.521Z,19.28
2018-10-06T10:54:03.663Z,19.31
2018-10-06T10:55:07.872Z,19.34
2018-10-06T10:56:12.037Z,19.38
2018-10-06T10:57:16.206Z,19.41
2018-10-06T10:58:20.344Z,19.43
2018-10-06T10:59:24.777Z,19.47
2018-10-06T11:00:28.840Z,19.48
2018-10-06T11:01:32.897Z,19.48
2018-10-06T11:02:37.149Z,19.50
2018-10-06T11:03:41.366Z,19.52
2018-10-06T11:04:45.745Z,19.53
2018-10-06T11:05:49.773Z,19.55
2018-10-06T11:06:53.994Z,19.56
2018-10-06T11:07:58.048Z,19.58
2018-10-06T11:09:02.169Z,19.60
2018-10-06T11:10:06.621Z,19.61
2018-10-06T11:11:10.789Z,19.63
2018-10-06T11:12:14.903Z,19.66
2018-10-06T11:13:19.016Z,19.68
2018-10-06T11:14:23.116Z,19.71
2018-10-06T11:15:27.288Z,19.74
2018-10-06T11:16:31.564Z,19.75
2018-10-06T11:17:35.834Z,19.78
2018-10-06T11:18:39.898Z,19.78
2018-10-06T11:19:44.145Z,19.79
2018-10-06T11:20:48.231Z,19.80
2018-10-06T11:21:52.333Z,19.83
2018-10-06T11:22:56.628Z,19.85
2018-10-06T11:24:00.903Z,19.88
2018-10-06T11:25:05.114Z,19.90
2018-10-06T11:26:09.219Z,19.91
2018-10-06T11:27:13.410Z,19.92
2018-10-06T11:28:24.341Z,19.95
2018-10-06T11:29:28.573Z,19.97
2018-10-06T11:30:32.655Z,20.00
2018-10-06T11:31:36.913Z,20.03
2018-10-06T11:32:41.059Z,20.05
2018-10-06T11:33:45.500Z,20.07
2018-10-06T11:34:49.607Z,20.10
2018-10-06T11:35:53.866Z,20.10
2018-10-06T11:36:58.002Z,20.12
2018-10-06T11:38:02.150Z,20.15
2018-10-06T11:39:07.906Z,20.18
2018-10-06T11:42:41.266Z,20.22
2018-10-06T11:43:45.342Z,20.24
2018-10-06T11:44:49.455Z,20.24
2018-10-06T11:45:53.693Z,20.26
2018-10-06T11:46:57.853Z,20.31
2018-10-06T11:48:02.028Z,20.34
2018-10-06T11:49:06.202Z,20.37
2018-10-06T11:50:10.467Z,20.40
2018-10-06T11:51:14.591Z,20.43
2018-10-06T11:52:18.675Z,20.46
2018-10-06T11:53:22.886Z,20.47
2018-10-06T11:54:26.908Z,20.48
2018-10-06T11:55:30.969Z,20.49
2018-10-06T11:56:34.967Z,20.50
2018-10-06T11:57:39.124Z,20.54
2018-10-06T11:58:43.213Z,20.58
2018-10-06T11:59:47.403Z,20.62
2018-10-06T12:00:51.695Z,20.64
2018-10-06T12:01:55.975Z,20.68
2018-10-06T12:03:00.125Z,20.70
2018-10-06T12:04:04.337Z,20.73
2018-10-06T12:05:08.446Z,20.75
2018-10-06T12:06:12.567Z,20.80
2018-10-06T12:07:16.705Z,20.84
2018-10-06T12:08:20.817Z,20.87
2018-10-06T12:09:25.038Z,20.93
2018-10-06T12:10:35.715Z,20.95
2018-10-06T12:11:40.728Z,20.98
2018-10-06T12:12:44.834Z,20.99
2018-10-06T12:13:49.002Z,21.03
2018-10-06T12:14:53.179Z,21.04
2018-10-06T12:15:57.378Z,21.05
2018-10-06T12:17:01.534Z,21.06
2018-10-06T12:18:05.619Z,21.07
2018-10-06T12:19:09.796Z,21.08
2018-10-06T12:20:14.022Z,21.10
2018-10-06T12:21:18.093Z,21.10
2018-10-06T12:22:22.345Z,21.11
2018-10-06T12:23:26.417Z,21.14
2018-10-06T12:24:30.523Z,21.17
2018-10-06T12:25:34.791Z,21.20
2018-10-06T12:26:38.858Z,21.23
2018-10-06T12:27:42.983Z,21.25
2018-10-06T12:28:46.999Z,21.29
2018-10-06T12:29:51.156Z,21.31
2018-10-06T12:30:55.392Z,21.33
2018-10-06T12:31:59.688Z,21.35
2018-10-06T12:33:04.000Z,21.38
2018-10-06T12:34:08.200Z,21.40
2018-10-06T12:35:12.305Z,21.42
2018-10-06T12:36:16.742Z,21.43
2018-10-06T12:37:20.832Z,21.43
2018-10-06T12:38:24.952Z,21.43
2018-10-06T12:39:29.075Z,21.43
2018-10-06T12:40:33.250Z,21.44
2018-10-06T12:41:37.282Z,21.44
2018-10-06T12:42:41.381Z,21.44
2018-10-06T12:43:45.483Z,21.45
2018-10-06T12:44:49.586Z,21.46
2018-10-06T12:45:53.875Z,21.48
2018-10-06T12:46:58.802Z,21.52
2018-10-06T12:48:02.841Z,21.59
2018-10-06T12:49:06.960Z,21.66
2018-10-06T12:50:11.033Z,21.74
2018-10-06T12:51:15.079Z,21.82
2018-10-06T12:52:19.148Z,21.89
2018-10-06T12:53:23.251Z,21.96
2018-10-06T12:54:27.324Z,22.01
2018-10-06T12:55:31.693Z,22.04
2018-10-06T12:56:36.555Z,22.05
2018-10-06T12:57:40.771Z,22.04
2018-10-06T12:58:44.816Z,22.06
2018-10-06T12:59:48.983Z,22.06
2018-10-06T13:00:53.098Z,22.07
2018-10-06T13:01:57.257Z,22.08
2018-10-06T13:03:01.797Z,22.11
2018-10-06T13:04:06.100Z,22.11
2018-10-06T13:05:10.494Z,22.11
2018-10-06T13:06:14.925Z,22.09
2018-10-06T13:07:19.096Z,22.07
2018-10-06T13:08:23.342Z,22.06
2018-10-06T13:09:27.557Z,22.06
2018-10-06T13:10:31.610Z,22.06
2018-10-06T13:11:35.723Z,22.05
2018-10-06T13:12:40.047Z,22.06
2018-10-06T13:13:44.218Z,22.05
2018-10-06T13:14:48.343Z,22.04
2018-10-06T13:15:52.612Z,22.06
2018-10-06T13:16:56.760Z,22.07
2018-10-06T13:18:01.035Z,22.09
2018-10-06T13:19:05.203Z,22.11
2018-10-06T13:20:09.737Z,22.13
2018-10-06T13:21:13.876Z,22.14
2018-10-06T13:22:17.916Z,22.14
2018-10-06T13:23:22.387Z,22.14
2018-10-06T13:24:26.584Z,22.14
2018-10-06T13:25:30.570Z,22.14
2018-10-06T13:26:34.588Z,22.12
2018-10-06T13:27:38.777Z,22.11
2018-10-06T13:28:42.921Z,22.12
2018-10-06T13:29:47.210Z,22.11
2018-10-06T13:30:51.356Z,22.10
2018-10-06T13:31:55.486Z,22.10
2018-10-06T13:32:59.641Z,22.10
2018-10-06T13:34:03.818Z,22.12
2018-10-06T13:35:08.867Z,22.12
2018-10-06T13:36:12.979Z,22.14
2018-10-06T13:37:17.060Z,22.14
2018-10-06T13:38:21.151Z,22.16
2018-10-06T13:39:25.321Z,22.17
2018-10-06T13:40:29.985Z,22.19
2018-10-06T13:41:34.095Z,22.20
2018-10-06T13:42:38.140Z,22.21
2018-10-06T13:43:42.338Z,22.25
2018-10-06T13:44:46.693Z,22.29
2018-10-06T13:45:50.805Z,22.33
2018-10-06T13:46:55.230Z,22.37
2018-10-06T13:47:59.276Z,22.39
2018-10-06T13:49:03.440Z,22.42
2018-10-06T13:50:07.595Z,22.42